createdAt,value
2024-05-09T00:00:39.051Z,10.67
2024-05-09T00:03:08.364Z,11.87
2024-05-09T00:05:37.087Z,10.63
2024-05-09T00:08:04.823Z,10.60
2024-05-09T00:10:36.712Z,10.00
2024-05-09T00:13:06.511Z,9.50
2024-05-09T00:15:34.506Z,10.50
2024-05-09T00:18:02.669Z,10.50
2024-05-09T00:20:37.535Z,12.07
2024-05-09T00:23:08.701Z,10.87
2024-05-09T00:25:36.193Z,10.33
2024-05-09T00:28:03.638Z,10.37
2024-05-09T00:30:34.706Z,9.87
2024-05-09T00:33:05.186Z,10.17
2024-05-09T00:35:33.493Z,9.67
2024-05-09T00:38:01.230Z,9.83
2024-05-09T00:40:38.967Z,10.07
2024-05-09T00:43:09.694Z,9.93
2024-05-09T00:45:36.890Z,10.23
2024-05-09T00:48:09.090Z,10.03
2024-05-09T00:50:39.143Z,10.30
2024-05-09T00:53:16.089Z,9.57
2024-05-09T00:55:43.563Z,9.90
2024-05-09T00:58:12.680Z,10.00
2024-05-09T01:00:41.418Z,10.33
2024-05-09T01:03:11.656Z,11.30
2024-05-09T01:05:40.918Z,9.73
2024-05-09T01:08:10.514Z,11.30
2024-05-09T01:10:38.129Z,11.43
2024-05-09T01:13:06.174Z,11.03
2024-05-09T01:15:34.903Z,10.63
2024-05-09T01:18:04.811Z,11.30
2024-05-09T01:20:40.841Z,10.83
2024-05-09T01:23:11.440Z,10.53
2024-05-09T01:25:38.989Z,11.43
2024-05-09T01:28:06.624Z,11.07
2024-05-09T01:30:36.287Z,10.67
2024-05-09T01:33:10.182Z,10.90
2024-05-09T01:35:40.904Z,10.67
2024-05-09T01:38:09.853Z,10.93
2024-05-09T01:40:39.769Z,10.97
2024-05-09T01:43:11.535Z,11.23
2024-05-09T01:45:39.696Z,11.53
2024-05-09T01:48:07.990Z,11.17
2024-05-09T01:50:39.804Z,12.33
2024-05-09T01:53:13.959Z,10.87
2024-05-09T01:55:42.015Z,11.40
2024-05-09T01:58:09.635Z,12.27
2024-05-09T02:00:40.917Z,12.27
2024-05-09T02:03:12.332Z,11.60
2024-05-09T02:05:42.900Z,11.47
2024-05-09T02:08:14.747Z,12.23
2024-05-09T02:10:42.048Z,11.10
2024-05-09T02:13:09.403Z,11.33
2024-05-09T02:15:36.605Z,12.87
2024-05-09T02:18:04.110Z,12.00
2024-05-09T02:20:36.162Z,11.83
2024-05-09T02:23:05.846Z,10.83
2024-05-09T02:25:33.253Z,11.33
2024-05-09T02:28:00.519Z,10.70
2024-05-09T02:30:38.515Z,12.33
2024-05-09T02:33:09.942Z,11.37
2024-05-09T02:35:38.847Z,11.93
2024-05-09T02:38:06.607Z,12.18
2024-05-09T02:40:37.813Z,13.03
2024-05-09T02:43:11.098Z,12.57
2024-05-09T02:45:39.805Z,11.10
2024-05-09T02:48:07.913Z,12.87
2024-05-09T02:50:39.109Z,12.90
2024-05-09T02:53:11.612Z,12.40
2024-05-09T02:55:39.399Z,11.33
2024-05-09T02:58:10.127Z,13.37
2024-05-09T03:00:40.706Z,12.93
2024-05-09T03:03:12.123Z,13.07
2024-05-09T03:05:41.798Z,13.17
2024-05-09T03:08:09.550Z,12.33
2024-05-09T03:10:38.664Z,11.27
2024-05-09T03:13:07.556Z,12.13
2024-05-09T03:15:34.854Z,12.57
2024-05-09T03:18:02.490Z,11.90
2024-05-09T03:20:34.221Z,10.93
2024-05-09T03:23:03.927Z,11.67
2024-05-09T03:25:31.466Z,11.53
2024-05-09T03:27:59.161Z,10.67
2024-05-09T03:30:38.195Z,11.87
2024-05-09T03:33:18.046Z,11.87
2024-05-09T03:35:47.485Z,12.40
2024-05-09T03:38:14.884Z,11.30
2024-05-09T03:40:49.913Z,12.17
2024-05-09T03:43:18.102Z,12.53
2024-05-09T03:45:45.785Z,11.53
2024-05-09T03:48:13.385Z,13.38
2024-05-09T03:50:40.954Z,12.10
2024-05-09T03:53:11.020Z,12.57
2024-05-09T03:55:38.899Z,11.17
2024-05-09T03:58:07.720Z,11.20
2024-05-09T04:00:38.614Z,10.90
2024-05-09T04:03:09.653Z,11.33
2024-05-09T04:05:43.797Z,11.90
2024-05-09T04:08:11.851Z,11.80
2024-05-09T04:10:39.286Z,12.53
2024-05-09T04:13:06.475Z,11.50
2024-05-09T04:15:33.710Z,12.80
2024-05-09T04:18:01.910Z,12.77
2024-05-09T04:20:37.478Z,12.77
2024-05-09T04:23:08.447Z,13.82
2024-05-09T04:25:36.445Z,13.10
2024-05-09T04:28:03.887Z,13.47
2024-05-09T04:30:37.606Z,13.03
2024-05-09T04:33:09.539Z,12.77
2024-05-09T04:35:39.048Z,15.27
2024-05-09T04:38:06.669Z,15.13
2024-05-09T04:40:36.443Z,18.43
2024-05-09T04:43:05.371Z,17.77
2024-05-09T04:45:32.758Z,16.47
2024-05-09T04:48:00.388Z,14.97
2024-05-09T04:50:36.421Z,15.53
2024-05-09T04:53:07.158Z,17.63
2024-05-09T04:55:35.053Z,14.93
2024-05-09T04:58:02.222Z,16.17
2024-05-09T05:00:35.870Z,13.83
2024-05-09T05:03:06.993Z,14.87
2024-05-09T05:05:35.311Z,13.97
2024-05-09T05:08:02.846Z,14.30
2024-05-09T05:10:35.700Z,14.20
2024-05-09T05:13:18.441Z,14.70
2024-05-09T05:15:57.427Z,14.77
2024-05-09T05:18:26.205Z,14.77
2024-05-09T05:20:53.583Z,15.03
2024-05-09T05:23:21.296Z,15.30
2024-05-09T05:25:49.305Z,15.90
2024-05-09T05:28:16.978Z,14.87
2024-05-09T05:30:44.424Z,15.20
2024-05-09T05:33:12.538Z,16.88
2024-05-09T05:35:40.748Z,15.90
2024-05-09T05:38:08.932Z,15.40
2024-05-09T05:40:40.383Z,16.50
2024-05-09T05:43:08.985Z,17.33
2024-05-09T05:45:36.566Z,17.30
2024-05-09T05:48:05.898Z,17.67
2024-05-09T05:50:36.655Z,18.37
2024-05-09T05:53:09.103Z,19.43
2024-05-09T05:55:40.628Z,17.43
2024-05-09T05:58:10.150Z,18.17
2024-05-09T06:00:39.487Z,16.53
2024-05-09T06:03:08.728Z,18.67
2024-05-09T06:05:46.574Z,17.80
2024-05-09T06:08:14.102Z,20.73
2024-05-09T06:10:42.091Z,18.20
2024-05-09T06:13:13.139Z,18.33
2024-05-09T06:15:41.421Z,18.20
2024-05-09T06:18:10.163Z,17.17
2024-05-09T06:20:39.747Z,17.97
2024-05-09T06:23:07.317Z,16.50
2024-05-09T06:25:35.061Z,17.30
2024-05-09T06:28:02.633Z,17.90
2024-05-09T06:30:37.441Z,16.60
2024-05-09T06:33:08.020Z,17.20
2024-05-09T06:35:36.020Z,15.60
2024-05-09T06:38:03.371Z,16.70
2024-05-09T06:40:37.259Z,16.47
2024-05-09T06:43:11.457Z,15.97
2024-05-09T06:45:39.675Z,15.30
2024-05-09T06:48:07.677Z,14.10
2024-05-09T06:50:37.999Z,14.03
2024-05-09T06:53:06.765Z,14.90
2024-05-09T06:55:34.211Z,13.53
2024-05-09T06:58:01.378Z,12.53
2024-05-09T07:00:35.737Z,12.57
2024-05-09T07:03:16.062Z,11.47
2024-05-09T07:05:46.007Z,11.70
2024-05-09T07:08:14.052Z,10.90
2024-05-09T07:10:41.436Z,10.70
2024-05-09T07:13:09.751Z,9.63
2024-05-09T07:15:37.090Z,10.27
2024-05-09T07:18:11.592Z,10.70
2024-05-09T07:20:39.446Z,9.40
2024-05-09T07:23:09.178Z,9.77
2024-05-09T07:25:36.523Z,9.43
2024-05-09T07:28:03.789Z,8.07
2024-05-09T07:30:34.108Z,8.90
2024-05-09T07:33:03.040Z,7.33
2024-05-09T07:35:31.210Z,6.93
2024-05-09T07:37:58.833Z,6.40
2024-05-09T07:40:33.173Z,6.70
2024-05-09T07:43:08.274Z,6.20
2024-05-09T07:52:32.667Z,5.40
2024-05-09T07:55:55.763Z,7.03
2024-05-09T07:58:27.202Z,6.33
2024-05-09T08:00:55.297Z,6.40
2024-05-09T08:03:23.447Z,6.27
2024-05-09T08:05:51.838Z,6.90
2024-05-09T08:08:19.148Z,6.30
2024-05-09T08:10:46.866Z,6.10
2024-05-09T08:13:14.207Z,6.70
2024-05-09T08:15:41.609Z,5.73
2024-05-09T08:18:09.682Z,5.63
2024-05-09T08:20:41.336Z,6.20
2024-05-09T08:23:08.526Z,5.70
2024-05-09T08:25:35.722Z,6.37
2024-05-09T08:28:04.818Z,6.38
2024-05-09T08:30:36.876Z,6.47
2024-05-09T08:33:06.687Z,5.90
2024-05-09T08:35:35.139Z,5.30
2024-05-09T08:38:06.073Z,5.70
2024-05-09T08:40:36.276Z,5.50
2024-05-09T08:43:12.539Z,5.77
2024-05-09T08:45:44.089Z,5.57
2024-05-09T08:48:13.323Z,5.83
2024-05-09T08:50:41.505Z,5.60
2024-05-09T08:53:09.307Z,5.60
2024-05-09T08:55:40.457Z,6.50
2024-05-09T08:58:11.134Z,5.60
2024-05-09T09:00:39.425Z,6.50
2024-05-09T09:03:09.674Z,6.68
2024-05-09T09:05:39.312Z,6.67
2024-05-09T09:08:08.426Z,6.20
2024-05-09T09:10:36.128Z,5.90
2024-05-09T09:13:05.236Z,5.57
2024-05-09T09:15:33.129Z,4.57
2024-05-09T09:18:01.419Z,5.77
2024-05-09T09:20:36.281Z,5.70
2024-05-09T09:23:04.715Z,5.00
2024-05-09T09:25:32.273Z,4.50
2024-05-09T09:27:59.794Z,4.43
2024-05-09T09:30:36.546Z,5.83
2024-05-09T09:33:06.090Z,4.87
2024-05-09T09:35:33.706Z,5.07
2024-05-09T09:38:03.072Z,5.32
2024-05-09T09:40:41.072Z,5.10
2024-05-09T09:43:14.864Z,5.30
2024-05-09T09:45:43.922Z,5.20
2024-05-09T09:48:12.178Z,4.80
2024-05-09T09:50:39.602Z,4.33
2024-05-09T09:53:07.807Z,4.30
2024-05-09T09:55:35.532Z,4.40
2024-05-09T09:58:05.936Z,4.53
2024-05-09T10:00:34.725Z,3.80
2024-05-09T10:03:02.274Z,4.13
2024-05-09T10:05:30.434Z,3.87
2024-05-09T10:07:58.587Z,4.13
2024-05-09T10:10:32.050Z,3.37
2024-05-09T10:13:01.191Z,3.00
2024-05-09T10:15:28.631Z,3.20
2024-05-09T10:18:06.101Z,4.07
2024-05-09T10:20:46.059Z,3.63
2024-05-09T10:23:29.572Z,3.60
2024-05-09T10:26:00.486Z,3.07
2024-05-09T10:28:28.599Z,3.10
2024-05-09T10:31:07.776Z,2.90
2024-05-09T10:33:39.358Z,2.93
2024-05-09T10:36:19.604Z,2.77
2024-05-09T10:38:46.827Z,3.10
2024-05-09T10:41:14.224Z,2.93
2024-05-09T10:43:41.872Z,2.90
2024-05-09T10:46:09.762Z,2.47
2024-05-09T10:48:37.504Z,2.60
2024-05-09T10:51:05.353Z,2.53
2024-05-09T10:53:32.637Z,2.50
2024-05-09T10:56:00.298Z,2.77
2024-05-09T10:58:28.197Z,2.97
2024-05-09T11:00:56.076Z,3.10
2024-05-09T11:03:23.997Z,3.00
2024-05-09T11:05:52.108Z,3.03
2024-05-09T11:08:23.057Z,2.60
2024-05-09T11:10:52.443Z,3.77
2024-05-09T11:13:29.776Z,3.40
2024-05-09T11:15:57.000Z,3.63
2024-05-09T11:18:25.926Z,2.70
2024-05-09T11:20:55.112Z,2.90
2024-05-09T11:23:23.016Z,3.17
2024-05-09T11:25:53.762Z,3.20
2024-05-09T11:28:21.582Z,2.50
2024-05-09T11:30:49.692Z,2.70
2024-05-09T11:33:18.916Z,3.20
2024-05-09T11:35:46.959Z,3.00
2024-05-09T11:38:14.530Z,2.50
2024-05-09T11:40:41.823Z,3.00
2024-05-09T11:43:09.191Z,2.60
2024-05-09T11:45:36.526Z,2.80
2024-05-09T11:48:04.357Z,2.83
2024-05-09T11:50:35.443Z,2.90
2024-05-09T11:53:03.447Z,2.37
2024-05-09T11:55:30.879Z,2.60
2024-05-09T11:57:58.343Z,2.63
2024-05-09T12:00:33.937Z,2.63
2024-05-09T12:03:05.625Z,2.53
2024-05-09T12:05:34.266Z,2.93
2024-05-09T12:08:02.057Z,2.70
2024-05-09T12:10:33.785Z,2.57
2024-05-09T12:13:05.376Z,2.67
2024-05-09T12:15:36.256Z,3.00
2024-05-09T12:18:04.898Z,2.50
2024-05-09T12:20:37.643Z,2.60
2024-05-09T12:23:07.415Z,2.63
2024-05-09T12:25:35.178Z,2.80
2024-05-09T12:28:02.445Z,2.70
2024-05-09T12:30:36.370Z,2.50
2024-05-09T12:33:08.302Z,2.57
2024-05-09T12:35:35.829Z,2.70
2024-05-09T12:38:03.220Z,3.03
2024-05-09T12:40:36.346Z,2.80
2024-05-09T12:43:06.970Z,2.60
2024-05-09T12:45:34.570Z,2.67
2024-05-09T12:48:01.979Z,2.70
2024-05-09T12:50:32.704Z,2.60
2024-05-09T12:53:02.404Z,3.03
2024-05-09T12:55:36.607Z,2.53
2024-05-09T12:58:08.964Z,2.30
2024-05-09T13:00:36.447Z,2.77
2024-05-09T13:03:03.875Z,2.53
2024-05-09T13:05:31.953Z,2.80
2024-05-09T13:08:00.483Z,2.77
2024-05-09T13:10:32.162Z,2.70
2024-05-09T13:13:01.692Z,2.60
2024-05-09T13:15:30.296Z,2.83
2024-05-09T13:18:01.638Z,3.00
2024-05-09T13:20:33.708Z,2.70
2024-05-09T13:23:03.343Z,2.37
2024-05-09T13:25:30.642Z,2.67
2024-05-09T13:27:58.484Z,2.93
2024-05-09T13:30:30.240Z,2.60
2024-05-09T13:33:06.852Z,2.80
2024-05-09T13:35:35.662Z,2.60
2024-05-09T13:38:04.384Z,2.70
2024-05-09T13:40:34.878Z,2.72
2024-05-09T13:43:06.484Z,2.17
2024-05-09T13:45:34.216Z,2.43
2024-05-09T13:48:06.692Z,2.80
2024-05-09T13:50:36.363Z,2.30
2024-05-09T13:53:08.529Z,2.40
2024-05-09T13:55:39.857Z,2.60
2024-05-09T13:58:08.129Z,2.43
2024-05-09T14:03:05.942Z,2.73
2024-05-09T14:05:33.551Z,2.23
2024-05-09T14:08:00.986Z,2.60
2024-05-09T14:10:31.191Z,2.70
2024-05-09T14:12:59.341Z,2.67
2024-05-09T14:15:26.561Z,2.65
2024-05-09T14:17:53.848Z,3.10
2024-05-09T14:20:30.322Z,2.60
2024-05-09T14:22:59.652Z,2.70
2024-05-09T14:25:31.775Z,2.90
2024-05-09T14:27:59.127Z,2.30
2024-05-09T14:30:36.008Z,2.17
2024-05-09T14:33:06.509Z,2.83
2024-05-09T14:35:34.592Z,2.33
2024-05-09T14:38:01.855Z,2.50
2024-05-09T14:40:39.074Z,3.10
2024-05-09T14:43:11.106Z,2.50
2024-05-09T14:45:38.629Z,2.20
2024-05-09T14:48:06.511Z,2.70
2024-05-09T14:50:37.516Z,2.58
2024-05-09T14:53:07.673Z,2.47
2024-05-09T14:55:37.372Z,2.57
2024-05-09T14:58:09.246Z,2.73
2024-05-09T15:00:41.698Z,2.63
2024-05-09T15:03:12.149Z,2.43
2024-05-09T15:05:39.468Z,2.63
2024-05-09T15:08:07.851Z,2.70
2024-05-09T15:10:36.767Z,2.30
2024-05-09T15:13:05.334Z,2.13
2024-05-09T15:15:33.259Z,2.40
2024-05-09T15:18:00.799Z,2.50
2024-05-09T15:20:34.517Z,2.50
2024-05-09T15:23:04.114Z,2.77
2024-05-09T15:25:31.348Z,2.50
2024-05-09T15:27:58.647Z,2.40
2024-05-09T15:32:56.282Z,3.30
2024-05-09T15:35:23.532Z,2.77
2024-05-09T15:37:50.727Z,2.60
2024-05-09T15:40:26.362Z,3.00
2024-05-09T15:43:02.765Z,2.70
2024-05-09T15:45:30.005Z,2.77
2024-05-09T15:47:57.783Z,2.60
2024-05-09T15:50:36.230Z,2.30
2024-05-09T15:53:08.107Z,2.90
2024-05-09T15:55:36.218Z,2.63
2024-05-09T15:58:04.652Z,3.47
2024-05-09T16:00:38.457Z,2.97
2024-05-09T16:03:09.744Z,2.55
2024-05-09T16:05:37.767Z,2.42
2024-05-09T16:08:05.627Z,2.58
2024-05-09T16:10:34.473Z,2.40
2024-05-09T16:13:03.388Z,2.85
2024-05-09T16:15:31.614Z,2.47
2024-05-09T16:17:59.056Z,2.40
2024-05-09T16:20:34.910Z,2.60
2024-05-09T16:23:07.286Z,2.38
2024-05-09T16:25:34.625Z,2.30
2024-05-09T16:28:02.093Z,2.53
2024-05-09T16:30:34.798Z,2.50
2024-05-09T16:33:04.437Z,2.85
2024-05-09T16:35:32.443Z,2.58
2024-05-09T16:37:59.824Z,3.05
2024-05-09T16:40:36.092Z,2.53
2024-05-09T16:43:07.418Z,2.30
2024-05-09T16:45:35.251Z,2.92
2024-05-09T16:48:03.120Z,2.60
2024-05-09T16:50:34.041Z,2.78
2024-05-09T16:53:03.482Z,2.60
2024-05-09T16:55:31.179Z,2.43
2024-05-09T16:57:58.716Z,3.07
2024-05-09T17:00:35.945Z,2.70
2024-05-09T17:03:09.985Z,3.07
2024-05-09T17:05:38.178Z,2.73
2024-05-09T17:08:05.944Z,2.90
2024-05-09T17:10:35.001Z,2.43
2024-05-09T17:13:04.295Z,2.73
2024-05-09T17:15:33.309Z,2.50
2024-05-09T17:18:01.289Z,2.80
2024-05-09T17:20:33.536Z,2.63
2024-05-09T17:23:04.020Z,3.03
2024-05-09T17:25:31.326Z,2.70
2024-05-09T17:28:05.223Z,2.80
2024-05-09T17:30:36.425Z,2.80
2024-05-09T17:33:06.618Z,2.50
2024-05-09T17:35:34.107Z,2.97
2024-05-09T17:38:01.617Z,2.63
2024-05-09T17:40:33.711Z,3.20
2024-05-09T17:43:04.270Z,2.73
2024-05-09T17:45:32.511Z,2.65
2024-05-09T17:48:00.428Z,2.60
2024-05-09T17:50:34.895Z,2.50
2024-05-09T17:53:04.261Z,2.90
2024-05-09T17:55:31.218Z,2.70
2024-05-09T17:57:58.279Z,2.70
2024-05-09T18:00:36.386Z,2.77
2024-05-09T18:03:07.442Z,2.50
2024-05-09T18:05:36.175Z,3.17
2024-05-09T18:08:03.746Z,2.73
2024-05-09T18:10:36.440Z,2.80
2024-05-09T18:13:06.803Z,2.90
2024-05-09T18:15:34.105Z,3.13
2024-05-09T18:18:01.834Z,2.83
2024-05-09T18:20:37.774Z,2.60
2024-05-09T18:23:10.291Z,3.00
2024-05-09T18:25:37.176Z,2.90
2024-05-09T18:28:04.227Z,2.43
2024-05-09T18:30:34.588Z,2.87
2024-05-09T18:33:07.986Z,3.07
2024-05-09T18:35:35.981Z,2.77
2024-05-09T18:38:03.591Z,2.90
2024-05-09T18:40:34.617Z,2.80
2024-05-09T18:43:06.271Z,2.87
2024-05-09T18:45:34.754Z,2.97
2024-05-09T18:48:01.699Z,2.70
2024-05-09T18:50:34.945Z,2.77
2024-05-09T18:53:08.870Z,2.73
2024-05-09T18:55:35.994Z,3.07
2024-05-09T18:58:04.391Z,2.93
2024-05-09T19:00:35.837Z,2.87
2024-05-09T19:03:09.122Z,3.10
2024-05-09T19:05:38.268Z,3.03
2024-05-09T19:08:05.929Z,3.23
2024-05-09T19:10:35.093Z,3.17
2024-05-09T19:13:07.987Z,3.03
2024-05-09T19:15:38.382Z,3.37
2024-05-09T19:18:06.146Z,3.00
2024-05-09T19:20:35.255Z,2.83
2024-05-09T19:23:03.679Z,3.23
2024-05-09T19:25:30.868Z,3.13
2024-05-09T19:27:57.835Z,2.97
2024-05-09T19:30:33.766Z,3.30
2024-05-09T19:33:06.483Z,2.80
2024-05-09T19:35:33.359Z,2.90
2024-05-09T19:38:00.262Z,2.93
2024-05-09T19:40:31.621Z,2.80
2024-05-09T19:43:05.198Z,2.73
2024-05-09T19:45:34.421Z,2.63
2024-05-09T19:48:02.336Z,2.77
2024-05-09T19:50:39.294Z,2.60
2024-05-09T19:53:10.396Z,2.83
2024-05-09T19:55:37.707Z,2.70
2024-05-09T19:58:06.897Z,2.83
2024-05-09T20:00:37.032Z,3.07
2024-05-09T20:03:06.770Z,3.00
2024-05-09T20:05:34.242Z,3.13
2024-05-09T20:08:01.196Z,3.00
2024-05-09T20:10:32.483Z,3.10
2024-05-09T20:13:01.873Z,2.93
2024-05-09T20:15:29.073Z,3.57
2024-05-09T20:17:56.103Z,3.83
2024-05-09T20:20:32.930Z,3.83
2024-05-09T20:23:05.950Z,4.53
2024-05-09T20:25:32.747Z,4.27
2024-05-09T20:27:59.625Z,4.57
2024-05-09T20:30:31.963Z,5.17
2024-05-09T20:33:02.736Z,4.40
2024-05-09T20:35:31.864Z,4.47
2024-05-09T20:37:59.125Z,4.33
2024-05-09T20:40:31.812Z,4.60
2024-05-09T20:43:02.147Z,4.57
2024-05-09T20:45:28.910Z,4.57
2024-05-09T20:47:55.870Z,4.27
2024-05-09T20:50:29.317Z,4.70
2024-05-09T20:53:04.245Z,4.33
2024-05-09T20:55:31.442Z,4.60
2024-05-09T20:57:58.847Z,4.23
2024-05-09T21:00:34.952Z,4.47
2024-05-09T21:03:07.500Z,4.63
2024-05-09T21:05:35.546Z,4.77
2024-05-09T21:08:03.127Z,4.67
2024-05-09T21:10:33.243Z,5.00
2024-05-09T21:13:02.983Z,4.50
2024-05-09T21:15:31.015Z,5.57
2024-05-09T21:17:58.616Z,4.80
2024-05-09T21:20:31.258Z,5.50
2024-05-09T21:22:59.843Z,4.67
2024-05-09T21:25:27.189Z,5.53
2024-05-09T21:27:54.622Z,5.10
2024-05-09T21:30:32.455Z,5.50
2024-05-09T21:33:09.840Z,5.37
2024-05-09T21:35:38.518Z,5.53
2024-05-09T21:38:06.992Z,5.70
2024-05-09T21:40:36.026Z,5.90
2024-05-09T21:43:04.824Z,5.50
2024-05-09T21:45:32.320Z,5.27
2024-05-09T21:47:59.679Z,5.63
2024-05-09T21:50:35.810Z,6.13
2024-05-09T21:53:07.344Z,5.43
2024-05-09T21:55:34.770Z,5.57
2024-05-09T21:58:02.439Z,5.73
2024-05-09T22:00:36.031Z,5.70
2024-05-09T22:03:09.338Z,5.93
2024-05-09T22:05:37.960Z,5.43
2024-05-09T22:08:05.452Z,6.20
2024-05-09T22:10:35.102Z,6.10
2024-05-09T22:13:05.116Z,5.93
2024-05-09T22:15:37.651Z,6.17
2024-05-09T22:18:06.321Z,5.67
2024-05-09T22:20:37.727Z,6.03
2024-05-09T22:23:06.785Z,5.33
2024-05-09T22:25:34.260Z,5.30
2024-05-09T22:28:02.704Z,5.77
2024-05-09T22:30:36.001Z,5.77
2024-05-09T22:33:07.075Z,5.87
2024-05-09T22:35:34.535Z,6.10
2024-05-09T22:38:02.820Z,5.90
2024-05-09T22:40:38.944Z,5.83
2024-05-09T22:43:14.093Z,5.03
2024-05-09T22:45:41.571Z,5.07
2024-05-09T22:48:09.391Z,5.83
2024-05-09T22:50:36.768Z,5.40
2024-05-09T22:53:04.055Z,5.40
2024-05-09T22:55:31.256Z,6.07
2024-05-09T22:57:58.477Z,6.00
2024-05-09T23:00:31.574Z,5.50
2024-05-09T23:03:01.143Z,5.80
2024-05-09T23:05:28.687Z,5.03
2024-05-09T23:07:56.048Z,6.00
2024-05-09T23:10:31.130Z,5.77
2024-05-09T23:13:02.999Z,5.83
2024-05-09T23:15:30.466Z,5.97
2024-05-09T23:17:58.397Z,5.70
2024-05-09T23:20:33.481Z,6.00
2024-05-09T23:23:05.317Z,5.90
2024-05-09T23:25:32.568Z,5.53
2024-05-09T23:27:59.937Z,5.27
2024-05-09T23:30:34.752Z,5.70
2024-05-09T23:33:06.501Z,5.85
2024-05-09T23:35:33.847Z,7.17
2024-05-09T23:38:01.077Z,5.77
2024-05-09T23:40:37.638Z,6.73
2024-05-09T23:43:08.194Z,6.20
2024-05-09T23:45:35.763Z,6.40
2024-05-09T23:48:03.588Z,6.50
2024-05-09T23:50:35.555Z,7.23
2024-05-09T23:53:05.696Z,6.53
2024-05-09T23:55:33.289Z,6.30
2024-05-09T23:58:00.872Z,7.00
